Time;durP1;ratioP1;P1;durP2;ratioP2;P2;SDS_P1;SDS_P2;PMS_P1;PMS_P2;Temp;Humidity;BMP_temperature;BMP_pressure;BME280_temperature;BME280_humidity;BME280_pressure;Samples;Min_cycle;Max_cycle;Signal;HPM_P1;HPM_P2
2022/04/07 03:02:16;;;;;;;8.37;8.07;;;9.90;99.90;;;;;;5037052;23;20650;-79
2022/04/07 03:04:42;;;;;;;13.17;12.57;;;9.80;99.90;;;;;;4899844;29;20310;-79
2022/04/07 03:07:08;;;;;;;20.77;19.87;;;9.80;99.90;;;;;;4905647;29;20675;-78
2022/04/07 03:09:33;;;;;;;15.93;15.23;;;9.90;99.90;;;;;;4895569;29;20906;-77
2022/04/07 03:11:59;;;;;;;9.03;8.60;;;9.90;99.90;;;;;;4905243;29;20803;-78
2022/04/07 03:14:27;;;;;;;5.20;5.00;;;10.00;99.90;;;;;;4920206;23;20235;-75
2022/04/07 03:16:53;;;;;;;8.50;8.20;;;10.00;99.90;;;;;;4894926;29;20176;-73
2022/04/07 03:19:19;;;;;;;42.57;40.50;;;10.00;99.90;;;;;;4907383;29;20184;-73
2022/04/07 03:21:45;;;;;;;32.10;30.57;;;10.00;99.90;;;;;;4895755;29;20184;-72
2022/04/07 03:24:11;;;;;;;9.50;9.13;;;10.10;99.90;;;;;;4895706;29;20723;-74
2022/04/07 03:26:38;;;;;;;7.57;7.27;;;10.10;99.90;;;;;;4894764;29;20247;-73
2022/04/07 03:29:05;;;;;;;5.47;5.27;;;10.10;99.90;;;;;;4895763;29;20203;-74
2022/04/07 03:31:31;;;;;;;4.23;4.13;;;10.20;99.90;;;;;;4894641;29;20179;-74
2022/04/07 03:33:57;;;;;;;4.10;3.90;;;10.20;99.90;;;;;;4895590;29;20284;-74
2022/04/07 03:36:23;;;;;;;5.07;4.93;;;10.20;99.90;;;;;;4896830;29;20184;-74
2022/04/07 03:38:51;;;;;;;9.07;8.77;;;10.20;99.90;;;;;;4895447;29;20278;-74
2022/04/07 03:41:18;;;;;;;10.77;10.23;;;10.30;99.90;;;;;;4894632;29;20290;-74
2022/04/07 03:43:44;;;;;;;31.33;29.90;;;10.30;99.90;;;;;;4895715;29;20267;-74
2022/04/07 03:46:10;;;;;;;21.03;20.07;;;10.30;99.90;;;;;;4894594;29;20553;-74
2022/04/07 03:48:36;;;;;;;25.37;24.23;;;10.30;99.90;;;;;;4895365;29;20277;-74
2022/04/07 03:51:02;;;;;;;9.87;9.43;;;10.30;99.90;;;;;;4896879;29;20624;-70
2022/04/07 03:53:28;;;;;;;15.73;15.07;;;10.40;99.90;;;;;;4898960;29;20207;-70
2022/04/07 03:55:54;;;;;;;18.10;17.23;;;10.30;99.90;;;;;;4898990;29;20212;-71
2022/04/07 03:58:21;;;;;;;5.57;5.37;;;10.30;99.90;;;;;;4897562;29;20180;-71
2022/04/07 04:00:46;;;;;;;6.43;6.13;;;10.40;99.90;;;;;;4898773;29;20186;-70
2022/04/07 04:03:13;;;;;;;5.37;5.23;;;10.40;99.90;;;;;;4897369;29;20200;-71
2022/04/07 04:05:38;;;;;;;4.60;4.50;;;10.40;99.90;;;;;;4900001;29;20215;-71
2022/04/07 04:08:04;;;;;;;5.57;5.37;;;10.40;99.90;;;;;;4900630;29;20203;-71
2022/04/07 04:10:30;;;;;;;6.17;5.90;;;10.40;99.90;;;;;;4912186;29;20547;-71
2022/04/07 04:12:56;;;;;;;5.20;5.00;;;10.30;99.90;;;;;;4917483;29;20211;-70
2022/04/07 04:15:22;;;;;;;4.93;4.73;;;10.30;99.90;;;;;;4917920;29;20763;-71
2022/04/07 04:17:48;;;;;;;5.00;4.80;;;10.30;99.90;;;;;;4917134;29;20659;-70
2022/04/07 04:20:14;;;;;;;4.73;4.63;;;10.40;99.90;;;;;;4916830;29;20190;-70
2022/04/07 04:22:40;;;;;;;4.50;4.20;;;10.30;99.90;;;;;;4904867;29;20294;-70
2022/04/07 04:25:08;;;;;;;3.90;3.80;;;10.30;99.90;;;;;;4897662;29;20316;-70
2022/04/07 04:27:34;;;;;;;3.83;3.73;;;10.30;99.90;;;;;;4897203;29;20203;-70
2022/04/07 04:30:00;;;;;;;4.63;4.53;;;10.30;99.90;;;;;;4897866;29;20597;-70
2022/04/07 04:32:27;;;;;;;4.27;4.07;;;10.30;99.90;;;;;;4898864;29;20220;-70
2022/04/07 04:34:52;;;;;;;4.40;4.30;;;10.30;99.90;;;;;;4897375;29;20263;-70
2022/04/07 04:37:21;;;;;;;4.70;4.60;;;10.30;99.90;;;;;;4897899;29;20605;-70
2022/04/07 04:39:46;;;;;;;4.20;4.03;;;10.30;99.90;;;;;;4898229;29;20239;-69
2022/04/07 04:42:13;;;;;;;4.30;4.20;;;10.30;99.90;;;;;;4897711;29;20200;-70
2022/04/07 04:44:39;;;;;;;4.57;4.47;;;10.30;99.90;;;;;;4896605;29;20557;-68
2022/04/07 04:47:05;;;;;;;4.20;4.10;;;10.30;99.90;;;;;;4897510;29;20198;-68
2022/04/07 04:49:30;;;;;;;5.20;4.80;;;10.40;99.90;;;;;;4897725;29;20203;-67
2022/04/07 04:51:56;;;;;;;4.40;4.30;;;10.50;99.90;;;;;;4897761;29;20187;-68
2022/04/07 04:54:22;;;;;;;4.40;4.20;;;10.40;99.90;;;;;;4900314;29;20203;-68
2022/04/07 04:56:48;;;;;;;4.67;4.40;;;10.40;99.90;;;;;;4898344;29;20194;-68
2022/04/07 04:59:14;;;;;;;4.17;4.07;;;10.40;99.90;;;;;;4909130;29;20179;-68
2022/04/07 05:01:40;;;;;;;3.63;3.53;;;10.50;99.90;;;;;;4916116;29;20198;-68
2022/04/07 05:04:06;;;;;;;3.50;3.40;;;10.40;99.90;;;;;;4916545;29;20203;-67
2022/04/07 05:06:32;;;;;;;3.83;3.73;;;10.40;99.90;;;;;;4916310;29;20226;-67
2022/04/07 05:08:57;;;;;;;3.57;3.47;;;10.40;99.90;;;;;;4916117;29;20179;-68
2022/04/07 05:11:23;;;;;;;4.00;3.80;;;10.40;99.90;;;;;;4915138;29;20183;-67
2022/04/07 05:13:49;;;;;;;4.07;3.87;;;10.40;99.90;;;;;;4916097;29;20219;-68
2022/04/07 05:16:15;;;;;;;3.87;3.70;;;10.40;99.90;;;;;;4916887;29;20254;-69
2022/04/07 05:18:47;;;;;;;3.50;3.40;;;10.40;99.90;;;;;;4914980;29;20560;-68
2022/04/07 05:21:16;;;;;;;3.83;3.73;;;10.50;99.90;;;;;;4915719;29;20199;-68
2022/04/07 05:23:42;;;;;;;4.20;3.93;;;10.50;99.90;;;;;;4916104;29;20206;-68
2022/04/07 05:26:08;;;;;;;3.70;3.40;;;10.60;99.90;;;;;;4914836;29;20598;-69
2022/04/07 05:28:34;;;;;;;3.40;3.30;;;10.60;99.90;;;;;;4915656;29;20294;-69
2022/04/07 05:31:00;;;;;;;3.77;3.67;;;10.60;99.90;;;;;;4915573;29;20183;-70
2022/04/07 05:33:26;;;;;;;3.77;3.50;;;10.50;99.90;;;;;;4914717;29;20210;-69
2022/04/07 05:35:52;;;;;;;3.90;3.70;;;10.60;99.90;;;;;;4913877;29;20270;-70
2022/04/07 05:38:18;;;;;;;3.80;3.70;;;10.60;99.90;;;;;;4914431;29;20574;-69
2022/04/07 05:40:43;;;;;;;4.03;3.83;;;10.60;99.90;;;;;;4915924;29;20265;-69
2022/04/07 05:43:09;;;;;;;3.77;3.60;;;10.60;99.90;;;;;;4914509;29;20294;-69
2022/04/07 05:45:38;;;;;;;4.50;4.30;;;10.60;99.90;;;;;;4915823;29;20306;-70
2022/04/07 05:48:04;;;;;;;3.57;3.47;;;10.60;99.90;;;;;;4915345;29;20182;-69
2022/04/07 05:50:30;;;;;;;5.60;5.40;;;10.70;99.90;;;;;;4915840;29;20671;-69
2022/04/07 05:52:56;;;;;;;7.10;6.80;;;10.70;99.90;;;;;;4916066;29;20207;-69
2022/04/07 05:55:22;;;;;;;7.47;7.17;;;10.70;99.90;;;;;;4915791;29;20187;-69
2022/04/07 05:57:49;;;;;;;7.40;7.10;;;10.80;99.90;;;;;;4915638;29;20190;-69
2022/04/07 06:00:17;;;;;;;8.40;8.00;;;10.90;99.90;;;;;;4916088;29;20217;-69
2022/04/07 06:02:44;;;;;;;7.13;6.80;;;10.90;99.90;;;;;;4915515;29;20194;-69
2022/04/07 06:05:14;;;;;;;7.03;6.83;;;11.00;99.90;;;;;;4914321;29;20816;-69
2022/04/07 06:07:40;;;;;;;9.33;8.93;;;11.00;99.90;;;;;;4915406;29;20179;-69
2022/04/07 06:10:07;;;;;;;7.30;7.00;;;11.10;99.90;;;;;;4915343;29;20175;-69
2022/04/07 06:12:33;;;;;;;6.37;6.17;;;11.30;99.90;;;;;;4915217;29;20223;-69
2022/04/07 06:14:58;;;;;;;5.07;4.87;;;11.40;99.90;;;;;;4915126;29;20230;-70
2022/04/07 06:17:32;;;;;;;7.93;7.53;;;12.00;99.90;;;;;;4913952;29;20366;-69
2022/04/07 06:19:58;;;;;;;5.03;4.63;;;12.20;99.90;;;;;;4915487;29;20187;-71
2022/04/07 06:22:23;;;;;;;3.93;3.80;;;12.80;99.90;;;;;;4915525;29;20196;-70
2022/04/07 06:24:49;;;;;;;4.20;4.10;;;13.50;99.90;;;;;;4914963;29;20298;-71
2022/04/07 06:27:15;;;;;;;4.70;4.43;;;14.20;99.90;;;;;;4914813;29;20197;-71
2022/04/07 06:29:41;;;;;;;4.40;4.20;;;14.50;99.90;;;;;;4915576;29;20202;-71
2022/04/07 06:32:07;;;;;;;6.50;6.20;;;14.60;99.90;;;;;;4915305;29;20648;-70
2022/04/07 06:34:32;;;;;;;4.67;4.57;;;14.70;99.90;;;;;;4915116;29;20213;-70
2022/04/07 06:37:00;;;;;;;4.07;3.97;;;14.60;99.90;;;;;;4914794;29;20210;-70
2022/04/07 06:39:26;;;;;;;3.73;3.63;;;14.50;99.90;;;;;;4914964;29;20265;-70
2022/04/07 06:41:52;;;;;;;3.60;3.30;;;14.00;99.90;;;;;;4914962;29;20195;-72
2022/04/07 06:44:19;;;;;;;4.47;4.37;;;13.50;99.90;;;;;;4914928;29;20304;-70
2022/04/07 06:46:45;;;;;;;3.60;3.50;;;12.90;99.90;;;;;;4914799;29;20396;-70
2022/04/07 06:49:11;;;;;;;4.43;4.33;;;12.50;99.90;;;;;;4915010;29;20218;-71
2022/04/07 06:51:37;;;;;;;3.27;3.17;;;12.30;99.90;;;;;;4915147;29;20179;-70
2022/04/07 06:54:03;;;;;;;3.20;3.10;;;12.20;99.90;;;;;;4915213;29;20805;-71
2022/04/07 06:56:29;;;;;;;3.47;3.37;;;12.10;99.90;;;;;;4915005;29;20623;-71
2022/04/07 06:58:55;;;;;;;3.37;3.27;;;12.10;99.90;;;;;;4913472;29;20193;-70
2022/04/07 07:01:21;;;;;;;3.43;3.33;;;12.20;99.90;;;;;;4913658;29;20182;-70
2022/04/07 07:03:46;;;;;;;3.37;3.27;;;12.20;99.90;;;;;;4913540;29;20584;-71
2022/04/07 07:06:12;;;;;;;3.53;3.30;;;12.20;99.90;;;;;;4913842;29;20215;-70
2022/04/07 07:08:40;;;;;;;3.77;3.50;;;12.20;99.90;;;;;;4913574;29;20217;-71
2022/04/07 07:11:06;;;;;;;3.20;3.10;;;12.10;99.90;;;;;;4916237;29;20622;-71
2022/04/07 07:13:33;;;;;;;3.13;3.00;;;12.10;99.90;;;;;;4916284;29;20246;-70
2022/04/07 07:15:58;;;;;;;3.60;3.30;;;12.10;99.90;;;;;;4913825;29;20183;-69
2022/04/07 07:18:24;;;;;;;3.80;3.70;;;12.20;99.90;;;;;;4914685;29;20191;-71
2022/04/07 07:20:50;;;;;;;3.83;3.50;;;12.30;99.90;;;;;;4916163;29;20642;-71
2022/04/07 07:23:16;;;;;;;3.37;3.27;;;12.40;99.90;;;;;;4914483;29;20219;-70
2022/04/07 07:25:42;;;;;;;3.30;3.20;;;12.70;99.90;;;;;;4915909;29;20253;-71
2022/04/07 07:28:09;;;;;;;3.43;3.33;;;12.90;99.90;;;;;;4916879;29;20190;-71
2022/04/07 07:30:35;;;;;;;3.50;3.40;;;13.00;99.90;;;;;;4918285;29;20754;-70
2022/04/07 07:33:02;;;;;;;3.77;3.67;;;13.10;99.90;;;;;;4917484;29;20258;-70
2022/04/07 07:35:28;;;;;;;3.40;3.30;;;13.10;99.90;;;;;;4916445;29;20234;-70
2022/04/07 07:38:01;;;;;;;4.17;4.07;;;13.20;99.90;;;;;;4917191;29;20660;-70
2022/04/07 07:40:28;;;;;;;4.90;4.70;;;13.40;99.90;;;;;;4917675;29;20258;-70
2022/04/07 07:42:56;;;;;;;4.80;4.60;;;13.40;99.90;;;;;;4916328;29;20254;-70
2022/04/07 07:45:26;;;;;;;4.50;4.10;;;13.30;99.90;;;;;;4916221;29;20219;-70
2022/04/07 07:47:53;;;;;;;4.30;4.20;;;13.30;99.90;;;;;;4916017;29;20194;-70
2022/04/07 07:50:20;;;;;;;4.60;4.33;;;13.20;99.90;;;;;;4916190;29;20184;-70
2022/04/07 07:52:46;;;;;;;3.63;3.53;;;13.30;99.90;;;;;;4917157;29;20204;-70
2022/04/07 07:55:11;;;;;;;3.40;3.30;;;13.30;99.90;;;;;;4917508;29;20277;-70
2022/04/07 07:57:37;;;;;;;3.97;3.60;;;13.10;99.90;;;;;;4916901;29;20331;-70
2022/04/07 08:00:07;;;;;;;3.93;3.83;;;13.10;99.90;;;;;;4915904;29;20187;-71
2022/04/07 08:02:36;;;;;;;4.30;4.20;;;13.10;99.90;;;;;;4916037;29;20190;-70
2022/04/07 08:05:03;;;;;;;3.50;3.40;;;13.20;99.90;;;;;;4917530;29;20214;-70
2022/04/07 08:07:28;;;;;;;3.73;3.50;;;13.30;99.90;;;;;;4916154;29;20285;-70
2022/04/07 08:09:56;;;;;;;3.53;3.43;;;13.20;99.90;;;;;;4917798;29;20178;-71
2022/04/07 08:12:26;;;;;;;3.63;3.53;;;13.20;99.90;;;;;;4915912;29;20574;-70
2022/04/07 08:14:53;;;;;;;3.60;3.50;;;13.10;99.90;;;;;;4915627;29;20711;-70
2022/04/07 08:17:20;;;;;;;5.10;4.90;;;13.00;99.90;;;;;;4915345;29;20231;-70
2022/04/07 08:19:47;;;;;;;4.33;4.10;;;12.90;99.90;;;;;;4916896;29;20647;-71
2022/04/07 08:22:13;;;;;;;4.30;4.20;;;13.00;99.90;;;;;;4916781;29;20190;-70
2022/04/07 08:24:38;;;;;;;4.37;4.07;;;13.00;99.90;;;;;;4915543;29;20211;-71
2022/04/07 08:27:05;;;;;;;4.10;3.90;;;13.00;99.90;;;;;;4916420;29;20183;-70
2022/04/07 08:29:31;;;;;;;4.33;4.13;;;12.90;99.90;;;;;;4916175;29;20197;-70
2022/04/07 08:31:57;;;;;;;3.90;3.63;;;13.00;99.90;;;;;;4917801;29;20269;-71
2022/04/07 08:34:25;;;;;;;4.03;3.83;;;13.00;99.90;;;;;;4916739;29;20621;-71
2022/04/07 08:36:52;;;;;;;3.63;3.40;;;13.00;99.90;;;;;;4914790;29;20191;-70
2022/04/07 08:39:19;;;;;;;3.47;3.37;;;13.00;99.90;;;;;;4915281;29;20261;-70
2022/04/07 08:41:47;;;;;;;4.13;3.53;;;13.10;99.90;;;;;;4915166;29;20201;-70
2022/04/07 08:44:17;;;;;;;3.73;3.63;;;13.10;99.90;;;;;;4916269;29;20214;-71
2022/04/07 08:46:53;;;;;;;3.50;3.40;;;13.20;99.90;;;;;;4914820;29;20737;-70
2022/04/07 08:49:21;;;;;;;3.50;3.20;;;13.30;99.90;;;;;;4915036;29;20183;-70
2022/04/07 08:51:49;;;;;;;3.07;2.97;;;13.40;99.90;;;;;;4916253;29;20179;-70
2022/04/07 08:54:15;;;;;;;3.27;3.07;;;13.40;99.90;;;;;;4915021;29;20683;-71
2022/04/07 08:56:41;;;;;;;3.53;3.43;;;13.30;99.90;;;;;;4915166;29;20198;-70
2022/04/07 08:59:07;;;;;;;3.37;3.17;;;13.40;99.90;;;;;;4916368;29;20179;-70
2022/04/07 09:01:32;;;;;;;3.00;2.90;;;13.50;99.90;;;;;;4916335;29;20186;-70
2022/04/07 09:03:58;;;;;;;3.03;2.93;;;13.50;99.90;;;;;;4916343;29;20205;-71
2022/04/07 09:06:25;;;;;;;3.37;3.20;;;13.60;99.90;;;;;;4916043;29;20304;-70
2022/04/07 09:08:51;;;;;;;3.07;2.97;;;13.60;99.90;;;;;;4914601;29;20670;-70
2022/04/07 09:11:19;;;;;;;3.03;2.93;;;13.70;99.90;;;;;;4914878;29;20178;-71
2022/04/07 09:13:45;;;;;;;3.27;3.17;;;13.80;99.90;;;;;;4936990;23;20322;-75
2022/04/07 09:16:14;;;;;;;3.60;3.50;;;13.90;99.90;;;;;;4915888;29;20234;-75
2022/04/07 09:18:49;;;;;;;3.23;3.13;;;13.80;99.90;;;;;;4917989;29;20554;-75
2022/04/07 09:21:22;;;;;;;3.40;3.03;;;13.70;99.90;;;;;;4930274;29;20229;-74
2022/04/07 09:23:48;;;;;;;3.27;3.17;;;13.50;99.90;;;;;;4916757;29;20219;-74
2022/04/07 09:26:16;;;;;;;3.03;2.97;;;13.40;99.90;;;;;;4915881;29;20564;-74
2022/04/07 09:28:42;;;;;;;4.97;3.27;;;13.40;99.90;;;;;;4915346;29;20187;-75
2022/04/07 09:31:13;;;;;;;3.00;2.90;;;13.40;99.90;;;;;;4914623;29;20182;-73
2022/04/07 09:33:39;;;;;;;3.23;3.13;;;13.40;99.90;;;;;;4915877;29;20574;-74
2022/04/07 09:36:10;;;;;;;3.30;3.10;;;13.40;99.90;;;;;;4915627;29;20575;-74
2022/04/07 09:38:37;;;;;;;3.30;3.20;;;13.40;99.90;;;;;;4914194;29;20191;-74
2022/04/07 09:41:07;;;;;;;3.47;3.27;;;13.50;99.90;;;;;;4915866;29;20265;-74
2022/04/07 09:43:48;;;;;;;3.50;3.30;;;13.50;99.90;;;;;;4915581;29;20211;-74
2022/04/07 09:46:16;;;;;;;3.20;3.00;;;13.40;99.90;;;;;;4915377;29;20590;-74
2022/04/07 09:49:08;;;;;;;3.67;3.47;;;13.20;99.90;;;;;;4914160;29;20184;-74
2022/04/07 09:51:40;;;;;;;4.17;4.07;;;13.00;99.90;;;;;;4915604;29;20237;-73
2022/04/07 09:54:09;;;;;;;3.33;3.13;;;12.90;99.90;;;;;;4914379;29;20206;-74
2022/04/07 09:56:35;;;;;;;3.13;3.03;;;12.80;99.90;;;;;;4914310;29;20186;-74
2022/04/07 09:59:05;;;;;;;4.70;4.50;;;12.70;99.90;;;;;;4913617;29;20189;-73
2022/04/07 10:01:33;;;;;;;4.53;4.43;;;12.50;99.90;;;;;;4915622;29;20333;-73
2022/04/07 10:03:59;;;;;;;4.07;3.87;;;12.50;99.90;;;;;;4915020;29;20214;-73
2022/04/07 10:06:26;;;;;;;5.17;4.97;;;12.60;99.90;;;;;;4915059;29;20349;-74
2022/04/07 10:08:52;;;;;;;3.90;3.80;;;12.70;99.90;;;;;;4915042;29;20185;-74
2022/04/07 10:11:18;;;;;;;3.27;3.17;;;13.00;99.90;;;;;;4915611;29;20182;-74
2022/04/07 10:13:46;;;;;;;3.30;3.20;;;13.20;99.90;;;;;;4914667;29;20702;-74
2022/04/07 10:16:18;;;;;;;3.57;3.43;;;13.40;99.90;;;;;;4913906;29;20203;-74
2022/04/07 10:19:03;;;;;;;3.33;3.23;;;13.60;99.90;;;;;;4914512;29;20194;-75
2022/04/07 10:21:35;;;;;;;4.03;3.93;;;13.80;99.90;;;;;;4913665;29;20191;-74
2022/04/07 10:24:22;;;;;;;3.30;3.20;;;14.00;99.90;;;;;;4914587;29;20667;-74
2022/04/07 10:26:49;;;;;;;3.57;3.37;;;13.90;99.90;;;;;;4914557;29;20218;-74
2022/04/07 10:29:22;;;;;;;3.30;3.20;;;13.90;99.90;;;;;;4916129;29;20274;-75
2022/04/07 10:32:19;;;;;;;3.30;3.20;;;14.00;99.90;;;;;;4913402;29;20663;-74
2022/04/07 10:34:58;;;;;;;3.33;3.23;;;14.30;99.90;;;;;;4913495;29;20278;-74
2022/04/07 10:37:43;;;;;;;4.10;3.90;;;14.60;99.90;;;;;;4913076;29;20191;-74
2022/04/07 10:40:31;;;;;;;4.63;4.33;;;14.80;99.90;;;;;;4913476;29;20670;-74
2022/04/07 10:43:17;;;;;;;3.30;3.20;;;15.10;99.90;;;;;;4914403;29;20191;-74
2022/04/07 10:45:58;;;;;;;3.47;3.37;;;15.40;99.90;;;;;;4914685;29;20225;-74
2022/04/07 10:48:37;;;;;;;3.20;3.10;;;15.40;99.90;;;;;;4914290;29;20186;-74
2022/04/07 10:51:10;;;;;;;3.53;3.33;;;15.20;99.90;;;;;;4913391;29;20175;-75
2022/04/07 10:53:59;;;;;;;4.23;4.13;;;15.20;99.90;;;;;;4914367;29;20206;-74
2022/04/07 10:56:35;;;;;;;7.50;7.23;;;15.40;99.90;;;;;;4914399;29;20187;-74
2022/04/07 10:59:18;;;;;;;9.03;8.70;;;15.30;99.90;;;;;;4913127;29;20194;-74
2022/04/07 11:01:53;;;;;;;11.20;10.80;;;15.40;99.90;;;;;;4918675;29;20187;-74
2022/04/07 11:04:22;;;;;;;11.50;11.00;;;15.20;99.90;;;;;;4918746;29;20209;-74
2022/04/07 11:07:13;;;;;;;7.03;6.83;;;15.20;99.90;;;;;;4936655;29;20214;-74
2022/04/07 11:09:58;;;;;;;8.97;8.67;;;15.30;99.90;;;;;;4918730;29;20683;-73
2022/04/07 11:12:39;;;;;;;5.70;5.50;;;15.10;99.90;;;;;;4918108;29;20677;-74
2022/04/07 11:15:05;;;;;;;9.33;8.93;;;15.30;99.90;;;;;;4916731;29;20586;-75
2022/04/07 11:17:41;;;;;;;13.40;12.87;;;15.90;99.90;;;;;;4917592;29;20179;-76
2022/04/07 11:20:16;;;;;;;15.50;14.80;;;16.00;99.90;;;;;;4917949;29;20182;-73
2022/04/07 11:22:58;;;;;;;15.37;14.77;;;15.90;99.90;;;;;;4916786;29;20281;-73
2022/04/07 11:25:41;;;;;;;13.23;12.73;;;16.30;99.90;;;;;;4917080;29;20309;-74
2022/04/07 11:28:22;;;;;;;7.90;7.60;;;16.60;99.90;;;;;;4917143;29;20188;-73
2022/04/07 11:31:03;;;;;;;12.00;11.57;;;16.10;99.90;;;;;;4918780;29;20192;-74
2022/04/07 11:33:35;;;;;;;16.83;16.13;;;15.60;99.90;;;;;;4917951;29;20237;-73
2022/04/07 11:36:04;;;;;;;19.30;18.40;;;15.60;99.90;;;;;;4917918;29;20238;-74
2022/04/07 11:38:49;;;;;;;14.70;14.10;;;15.40;99.90;;;;;;4916283;29;20285;-74
2022/04/07 11:41:16;;;;;;;10.07;9.67;;;15.30;99.90;;;;;;4916447;29;20223;-74
2022/04/07 11:43:47;;;;;;;12.03;11.53;;;15.20;99.90;;;;;;4917695;29;20207;-74
2022/04/07 11:46:15;;;;;;;8.33;7.93;;;15.20;99.90;;;;;;4917518;29;20695;-74
2022/04/07 11:48:41;;;;;;;9.77;9.40;;;15.20;99.90;;;;;;4917141;29;20734;-74
2022/04/07 11:51:17;;;;;;;10.07;9.67;;;15.30;99.90;;;;;;4916373;29;20274;-74
2022/04/07 11:53:52;;;;;;;9.70;9.10;;;15.40;99.90;;;;;;4916480;29;20218;-74
2022/04/07 11:56:25;;;;;;;21.67;20.57;;;15.30;99.90;;;;;;4916581;29;20541;-74
2022/04/07 11:59:06;;;;;;;10.63;10.23;;;15.50;99.90;;;;;;4916224;29;20187;-74
2022/04/07 12:01:34;;;;;;;15.90;15.20;;;15.60;99.90;;;;;;4917437;29;20191;-74
2022/04/07 12:04:02;;;;;;;14.97;14.10;;;15.80;99.90;;;;;;4917304;29;20714;-74
2022/04/07 12:06:31;;;;;;;17.90;17.17;;;15.70;99.90;;;;;;4916244;29;20588;-74
2022/04/07 12:08:58;;;;;;;15.93;15.27;;;15.90;99.90;;;;;;4915853;29;20199;-74
2022/04/07 12:11:26;;;;;;;19.03;17.97;;;16.10;99.90;;;;;;4916185;29;20261;-74
2022/04/07 12:13:53;;;;;;;5.53;5.03;;;16.20;99.90;;;;;;4916995;29;20250;-75
2022/04/07 12:16:22;;;;;;;31.13;29.53;;;15.90;99.90;;;;;;4917370;29;20187;-74
2022/04/07 12:18:57;;;;;;;12.13;11.53;;;15.70;99.90;;;;;;4916817;29;20187;-74
2022/04/07 12:21:29;;;;;;;8.70;8.30;;;15.70;99.90;;;;;;4916298;29;20187;-74
2022/04/07 12:24:13;;;;;;;9.20;8.67;;;15.70;99.90;;;;;;4917021;29;20207;-74
2022/04/07 12:26:49;;;;;;;16.67;15.97;;;15.70;99.90;;;;;;4915702;29;20214;-74
2022/04/07 12:29:35;;;;;;;11.60;11.13;;;15.50;99.90;;;;;;4917010;29;20333;-74
2022/04/07 12:32:06;;;;;;;16.87;16.17;;;15.30;99.90;;;;;;4915390;29;20194;-75
2022/04/07 12:34:33;;;;;;;20.53;19.63;;;15.10;99.90;;;;;;4915467;29;20251;-75
2022/04/07 12:37:00;;;;;;;11.00;10.60;;;15.10;99.90;;;;;;4915325;29;20190;-75
2022/04/07 12:39:31;;;;;;;9.63;9.23;;;14.90;99.90;;;;;;4917024;29;20632;-75
2022/04/07 12:42:04;;;;;;;7.20;6.90;;;14.90;99.90;;;;;;4916660;29;20475;-75
2022/04/07 12:44:30;;;;;;;5.00;4.00;;;14.90;99.90;;;;;;4916731;29;20730;-75
2022/04/07 12:46:57;;;;;;;4.33;4.23;;;14.80;99.90;;;;;;4915470;29;20215;-75
2022/04/07 12:49:31;;;;;;;3.30;3.20;;;14.80;99.90;;;;;;4915828;29;20179;-75
2022/04/07 12:52:07;;;;;;;3.67;3.37;;;14.90;99.90;;;;;;4926951;29;20265;-75
2022/04/07 12:54:37;;;;;;;3.13;3.13;;;14.80;99.90;;;;;;4918518;29;20298;-75
2022/04/07 12:57:14;;;;;;;3.13;2.97;;;14.90;99.90;;;;;;4916630;29;20609;-75
2022/04/07 12:59:52;;;;;;;3.40;3.30;;;15.00;99.90;;;;;;4917067;29;20183;-75
2022/04/07 13:02:18;;;;;;;3.27;3.17;;;15.10;99.90;;;;;;4916672;29;20278;-75
2022/04/07 13:04:52;;;;;;;3.40;3.30;;;15.00;99.90;;;;;;4916597;29;20350;-75
2022/04/07 13:07:19;;;;;;;4.70;4.50;;;15.10;99.90;;;;;;4916438;29;20277;-75
2022/04/07 13:09:49;;;;;;;3.10;2.90;;;15.00;99.90;;;;;;4916546;29;20250;-75
2022/04/07 13:12:16;;;;;;;3.40;3.30;;;14.90;99.90;;;;;;4914983;29;20187;-75
2022/04/07 13:14:43;;;;;;;3.90;3.80;;;15.20;99.90;;;;;;4915985;29;20246;-75
2022/04/07 13:17:09;;;;;;;9.37;8.97;;;15.60;99.90;;;;;;4915849;29;20334;-75
2022/04/07 13:19:36;;;;;;;8.93;8.63;;;15.60;99.90;;;;;;4916085;29;20209;-75
2022/04/07 13:22:02;;;;;;;9.17;8.87;;;15.70;99.90;;;;;;4916036;29;20183;-75
2022/04/07 13:24:29;;;;;;;12.83;12.33;;;15.90;99.90;;;;;;4915645;29;20210;-75
2022/04/07 13:26:55;;;;;;;21.70;20.63;;;15.90;99.90;;;;;;4915542;29;20263;-76
2022/04/07 13:29:23;;;;;;;20.87;19.87;;;16.10;99.90;;;;;;4914698;29;20215;-75
2022/04/07 13:31:50;;;;;;;13.23;12.47;;;16.60;99.90;;;;;;4914670;29;20679;-75
2022/04/07 13:34:16;;;;;;;7.10;6.90;;;16.80;99.90;;;;;;4915693;29;20211;-75
2022/04/07 13:36:41;;;;;;;6.23;6.03;;;16.70;99.90;;;;;;4917004;29;20187;-75
2022/04/07 13:39:08;;;;;;;7.70;7.40;;;16.40;99.90;;;;;;4916041;29;20210;-76
2022/04/07 13:41:34;;;;;;;7.93;7.63;;;16.50;99.90;;;;;;4915696;29;20198;-75
2022/04/07 13:44:00;;;;;;;7.77;7.47;;;16.30;99.90;;;;;;4915696;29;20290;-75
2022/04/07 13:46:26;;;;;;;9.17;8.73;;;16.40;99.90;;;;;;4914615;29;20639;-75
2022/04/07 13:48:51;;;;;;;8.00;7.70;;;16.30;99.90;;;;;;4915384;29;20214;-76
2022/04/07 13:51:18;;;;;;;7.43;7.13;;;16.20;99.90;;;;;;4915478;29;20672;-75
2022/04/07 13:53:44;;;;;;;17.80;17.10;;;15.80;99.90;;;;;;4914352;29;20195;-75
2022/04/07 13:56:10;;;;;;;19.53;18.73;;;15.50;99.90;;;;;;4915708;29;20198;-75
2022/04/07 13:58:37;;;;;;;15.93;15.23;;;15.40;99.90;;;;;;4915176;29;20275;-75
2022/04/07 14:01:09;;;;;;;16.50;15.80;;;15.20;99.90;;;;;;4915506;29;20187;-75
2022/04/07 14:03:35;;;;;;;9.43;9.13;;;15.10;99.90;;;;;;4915326;29;20258;-75
2022/04/07 14:06:01;;;;;;;17.57;16.87;;;15.20;99.90;;;;;;4916087;29;20214;-74
2022/04/07 14:08:27;;;;;;;13.17;12.67;;;15.40;99.90;;;;;;4915517;29;20183;-75
2022/04/07 14:10:53;;;;;;;16.80;16.10;;;15.50;99.90;;;;;;4914341;29;20179;-74
2022/04/07 14:13:20;;;;;;;17.23;16.43;;;15.60;99.90;;;;;;4915077;29;20219;-74
2022/04/07 14:15:48;;;;;;;17.00;16.30;;;15.50;99.90;;;;;;4913928;29;20686;-75
2022/04/07 14:18:14;;;;;;;14.83;14.20;;;15.40;99.90;;;;;;4914685;29;20807;-74
2022/04/07 14:20:48;;;;;;;11.50;10.87;;;15.20;99.90;;;;;;4904387;29;20188;-74
2022/04/07 14:23:15;;;;;;;14.57;13.43;;;15.30;99.90;;;;;;4912916;29;20195;-74
2022/04/07 14:25:40;;;;;;;9.53;9.03;;;15.20;99.90;;;;;;4917550;29;20574;-74
2022/04/07 14:28:08;;;;;;;18.17;17.00;;;15.00;99.90;;;;;;4933343;29;20321;-75
2022/04/07 14:30:35;;;;;;;6.77;6.57;;;15.00;99.90;;;;;;4932628;29;20558;-75
2022/04/07 14:33:02;;;;;;;8.77;8.47;;;15.10;99.90;;;;;;4933833;29;20261;-75
2022/04/07 14:35:30;;;;;;;6.43;6.23;;;15.10;99.90;;;;;;4932150;29;20190;-74
2022/04/07 14:37:58;;;;;;;8.50;8.20;;;15.10;99.90;;;;;;4950556;29;20251;-74
2022/04/07 14:40:26;;;;;;;8.40;8.10;;;15.10;99.90;;;;;;4938012;29;20190;-74
2022/04/07 14:42:52;;;;;;;8.83;8.53;;;15.20;99.90;;;;;;4933806;29;20186;-74
2022/04/07 14:45:19;;;;;;;9.77;9.23;;;15.10;99.90;;;;;;4932298;29;20213;-74
2022/04/07 14:47:45;;;;;;;11.07;10.37;;;15.10;99.90;;;;;;4932259;29;20277;-74
2022/04/07 14:50:11;;;;;;;9.10;8.73;;;15.10;99.90;;;;;;4925375;29;20270;-74
2022/04/07 14:52:36;;;;;;;10.70;10.30;;;15.10;99.90;;;;;;4912466;29;20703;-75
2022/04/07 14:55:03;;;;;;;13.07;12.57;;;15.10;99.90;;;;;;4913959;29;20203;-75
2022/04/07 14:57:29;;;;;;;10.67;10.17;;;15.10;99.90;;;;;;4912415;29;20190;-75
2022/04/07 14:59:55;;;;;;;9.83;9.33;;;15.00;99.90;;;;;;4914288;29;20628;-75
2022/04/07 15:02:21;;;;;;;9.27;8.87;;;15.10;99.90;;;;;;4914481;29;20614;-75
2022/04/07 15:04:47;;;;;;;9.13;8.73;;;15.20;99.90;;;;;;4913006;29;20234;-75
2022/04/07 15:07:13;;;;;;;11.93;11.33;;;15.30;99.90;;;;;;4913931;29;20274;-74
2022/04/07 15:09:39;;;;;;;10.47;9.97;;;15.20;99.90;;;;;;4914172;29;20339;-75
2022/04/07 15:12:05;;;;;;;11.63;11.13;;;15.20;99.90;;;;;;4914199;29;20647;-75
2022/04/07 15:14:41;;;;;;;14.23;13.43;;;15.10;99.90;;;;;;4934773;23;20289;-71
2022/04/07 15:17:11;;;;;;;10.57;10.17;;;15.10;99.90;;;;;;4912239;29;20277;-71
2022/04/07 15:19:38;;;;;;;16.30;15.40;;;15.10;99.90;;;;;;4919377;29;20672;-71
2022/04/07 15:22:06;;;;;;;9.27;8.77;;;15.10;99.90;;;;;;4920454;29;20235;-71
2022/04/07 15:24:32;;;;;;;9.70;9.40;;;15.20;99.90;;;;;;4914179;29;20229;-70
2022/04/07 15:26:58;;;;;;;11.10;10.40;;;15.20;99.90;;;;;;4913821;29;20699;-71
2022/04/07 15:29:23;;;;;;;9.37;8.97;;;15.20;99.90;;;;;;4914199;29;20238;-71
2022/04/07 15:31:50;;;;;;;10.00;9.60;;;15.20;99.90;;;;;;4914069;29;20190;-70
2022/04/07 15:34:16;;;;;;;10.80;10.17;;;15.20;99.90;;;;;;4912690;29;20299;-71
2022/04/07 15:36:42;;;;;;;8.17;7.87;;;15.20;99.90;;;;;;4913927;29;20292;-71
2022/04/07 15:39:08;;;;;;;8.33;8.03;;;15.20;99.90;;;;;;4913826;29;20266;-71
2022/04/07 15:41:34;;;;;;;8.67;8.37;;;15.20;99.90;;;;;;4912927;29;20331;-71
2022/04/07 15:44:00;;;;;;;6.33;6.13;;;15.20;99.90;;;;;;4913782;29;20203;-70
2022/04/07 15:46:27;;;;;;;7.07;6.87;;;15.20;99.90;;;;;;4915627;29;20249;-71
2022/04/07 15:48:55;;;;;;;14.17;13.37;;;15.10;99.90;;;;;;4916976;29;20178;-71
2022/04/07 15:51:22;;;;;;;8.57;7.93;;;15.10;99.90;;;;;;4917320;29;20191;-70